Time;durP1;ratioP1;P1;durP2;ratioP2;P2;SDS_P1;SDS_P2;PMS_P1;PMS_P2;Temp;Humidity;BMP_temperature;BMP_pressure;BME280_temperature;BME280_humidity;BME280_pressure;Samples;Min_cycle;Max_cycle;Signal;HPM_P1;HPM_P2
2022/04/06 00:01:43;;;;;;;4.23;3.73;;;;;;;;;;5098632;28;20499;-79
2022/04/06 00:04:09;;;;;;;4.73;3.43;;;;;;;;;;5099189;28;20408;-79
2022/04/06 00:06:35;;;;;;;4.30;3.50;;;;;;;;;;5099716;28;20388;-80
2022/04/06 00:09:02;;;;;;;5.10;3.90;;;;;;;;;;5098510;28;20400;-80
2022/04/06 00:11:28;;;;;;;5.57;3.77;;;;;;;;;;5108743;28;20434;-79
2022/04/06 00:13:56;;;;;;;3.63;3.10;;;;;;;;;;5117252;28;20419;-80
2022/04/06 00:16:22;;;;;;;3.67;3.00;;;;;;;;;;5110859;28;20396;-80
2022/04/06 00:18:48;;;;;;;4.80;3.40;;;;;;;;;;5101563;28;20473;-80
2022/04/06 00:21:14;;;;;;;5.70;4.10;;;;;;;;;;5102374;28;20391;-80
2022/04/06 00:23:41;;;;;;;4.07;3.43;;;;;;;;;;5099115;28;20803;-80
2022/04/06 00:26:07;;;;;;;5.67;3.80;;;;;;;;;;5101066;28;20419;-80
2022/04/06 00:28:33;;;;;;;6.20;3.70;;;;;;;;;;5115135;28;20469;-79
2022/04/06 00:30:59;;;;;;;5.13;4.00;;;;;;;;;;5114680;28;20402;-79
2022/04/06 00:33:25;;;;;;;5.30;3.67;;;;;;;;;;5115069;28;20431;-79
2022/04/06 00:35:51;;;;;;;4.73;3.90;;;;;;;;;;5114336;28;20475;-79
2022/04/06 00:38:17;;;;;;;6.10;4.50;;;;;;;;;;5115993;28;20439;-79
2022/04/06 00:40:44;;;;;;;4.90;3.80;;;;;;;;;;5115088;28;20435;-79
2022/04/06 00:43:11;;;;;;;7.60;3.60;;;;;;;;;;5115179;28;20424;-80
2022/04/06 00:45:40;;;;;;;5.90;4.10;;;;;;;;;;5107763;28;20399;-80
2022/04/06 00:48:07;;;;;;;5.63;4.40;;;;;;;;;;5101368;28;20465;-80
2022/04/06 00:50:34;;;;;;;5.27;3.50;;;;;;;;;;5100390;28;20407;-79
2022/04/06 00:53:00;;;;;;;4.97;3.87;;;;;;;;;;5100969;28;20426;-82
2022/04/06 00:55:29;;;;;;;5.10;4.13;;;;;;;;;;5100462;28;20408;-80
2022/04/06 00:57:55;;;;;;;4.77;4.10;;;;;;;;;;5100075;28;20451;-80
2022/04/06 01:00:21;;;;;;;5.17;3.90;;;;;;;;;;5099149;28;20416;-81
2022/04/06 01:02:48;;;;;;;5.20;4.43;;;;;;;;;;5099195;28;20399;-80
2022/04/06 01:05:14;;;;;;;6.30;4.53;;;;;;;;;;5098861;28;20873;-80
2022/04/06 01:07:41;;;;;;;5.33;4.10;;;;;;;;;;5098773;28;20403;-80
2022/04/06 01:10:07;;;;;;;4.77;4.27;;;;;;;;;;5098740;28;20376;-80
2022/04/06 01:12:40;;;;;;;5.20;4.33;;;;;;;;;;5097314;28;20419;-80
2022/04/06 01:15:07;;;;;;;4.20;3.50;;;;;;;;;;5099628;28;20377;-80
2022/04/06 01:17:34;;;;;;;4.90;4.17;;;;;;;;;;5100913;28;20484;-79
2022/04/06 01:20:00;;;;;;;7.40;4.40;;;;;;;;;;5096591;28;20408;-81
2022/04/06 01:22:27;;;;;;;5.63;4.30;;;;;;;;;;5099210;28;20419;-81
2022/04/06 01:24:53;;;;;;;6.10;4.90;;;;;;;;;;5096976;28;20534;-81
2022/04/06 01:27:20;;;;;;;6.13;4.13;;;;;;;;;;5099360;28;20424;-81
2022/04/06 01:29:46;;;;;;;5.50;4.47;;;;;;;;;;5099320;28;20415;-81
2022/04/06 01:32:20;;;;;;;7.73;4.20;;;;;;;;;;5098990;28;20463;-81
2022/04/06 01:34:47;;;;;;;5.43;4.30;;;;;;;;;;5104774;28;20844;-81
2022/04/06 01:37:14;;;;;;;5.13;3.70;;;;;;;;;;5114945;28;20842;-79
2022/04/06 01:39:41;;;;;;;5.40;4.10;;;;;;;;;;5116801;28;20450;-79
2022/04/06 01:42:10;;;;;;;6.73;4.80;;;;;;;;;;5119238;28;20405;-82
2022/04/06 01:44:36;;;;;;;6.70;4.90;;;;;;;;;;5119909;28;20783;-82
2022/04/06 01:47:04;;;;;;;5.80;4.27;;;;;;;;;;5119135;28;20406;-81
2022/04/06 01:52:15;;;;;;;5.33;3.50;;;;;;;;;;5119367;28;20436;-79
2022/04/06 01:54:45;;;;;;;4.90;4.20;;;;;;;;;;5118843;28;20418;-80
2022/04/06 01:57:11;;;;;;;7.10;5.47;;;;;;;;;;5116871;28;20421;-80
2022/04/06 01:59:37;;;;;;;6.40;5.73;;;;;;;;;;5117841;28;20449;-80
2022/04/06 02:02:04;;;;;;;6.80;4.40;;;;;;;;;;5118189;28;20410;-80
2022/04/06 02:04:31;;;;;;;7.53;4.50;;;;;;;;;;5119491;28;20425;-82
2022/04/06 02:06:57;;;;;;;6.53;4.60;;;;;;;;;;5118038;28;20452;-82
2022/04/06 02:09:23;;;;;;;5.17;4.30;;;;;;;;;;5117703;28;20407;-80
2022/04/06 02:11:49;;;;;;;5.77;4.20;;;;;;;;;;5117902;28;20407;-80
2022/04/06 02:14:16;;;;;;;5.50;4.73;;;;;;;;;;5118232;28;20492;-80
2022/04/06 02:16:43;;;;;;;5.83;4.30;;;;;;;;;;5117233;28;20406;-80
2022/04/06 02:19:09;;;;;;;6.17;4.50;;;;;;;;;;5118616;28;20529;-79
2022/04/06 02:21:36;;;;;;;5.27;4.50;;;;;;;;;;5118020;28;20410;-79
2022/04/06 02:24:02;;;;;;;6.00;4.70;;;;;;;;;;5118854;28;20981;-80
2022/04/06 02:26:28;;;;;;;6.97;5.13;;;;;;;;;;5118736;28;20474;-80
2022/04/06 02:28:59;;;;;;;6.23;4.50;;;;;;;;;;5118613;28;20516;-81
2022/04/06 02:31:25;;;;;;;5.03;4.37;;;;;;;;;;5120039;28;20391;-85
2022/04/06 02:33:51;;;;;;;8.23;5.50;;;;;;;;;;5119104;28;20557;-82
2022/04/06 02:36:17;;;;;;;6.57;5.00;;;;;;;;;;5118204;28;20409;-83
2022/04/06 02:38:44;;;;;;;5.10;4.30;;;;;;;;;;5116693;28;20446;-80
2022/04/06 02:41:10;;;;;;;5.30;4.80;;;;;;;;;;5117565;28;20842;-80
2022/04/06 02:43:36;;;;;;;6.10;5.10;;;;;;;;;;5117086;28;20934;-80
2022/04/06 02:46:03;;;;;;;6.90;4.90;;;;;;;;;;5117603;28;20399;-80
2022/04/06 02:48:29;;;;;;;6.13;4.57;;;;;;;;;;5118025;28;20864;-79
2022/04/06 02:50:56;;;;;;;6.77;4.43;;;;;;;;;;5117777;28;20407;-80
2022/04/06 02:53:23;;;;;;;7.10;4.60;;;;;;;;;;5118562;28;20451;-82
2022/04/06 02:55:49;;;;;;;6.33;4.23;;;;;;;;;;5117776;28;20488;-80
2022/04/06 02:58:15;;;;;;;5.83;5.23;;;;;;;;;;5118335;28;20449;-81
2022/04/06 03:00:41;;;;;;;6.50;4.60;;;;;;;;;;5118128;28;20398;-81
2022/04/06 03:03:08;;;;;;;4.50;4.10;;;;;;;;;;5118386;28;20423;-81
2022/04/06 03:05:34;;;;;;;6.40;4.40;;;;;;;;;;5118551;28;20432;-81
2022/04/06 03:08:00;;;;;;;5.97;3.63;;;;;;;;;;5117926;28;20402;-81
2022/04/06 03:10:26;;;;;;;5.47;3.43;;;;;;;;;;5116481;28;20398;-82
2022/04/06 03:12:53;;;;;;;4.17;3.33;;;;;;;;;;5101617;28;20518;-80
2022/04/06 03:15:19;;;;;;;4.67;3.30;;;;;;;;;;5093722;28;20419;-80
2022/04/06 03:17:45;;;;;;;4.83;3.77;;;;;;;;;;5097735;28;20451;-80
2022/04/06 03:20:14;;;;;;;5.60;3.70;;;;;;;;;;5100118;28;20439;-80
2022/04/06 03:22:41;;;;;;;4.00;3.47;;;;;;;;;;5100170;28;20404;-81
2022/04/06 03:25:08;;;;;;;3.33;2.70;;;;;;;;;;5100159;28;20871;-81
2022/04/06 03:27:34;;;;;;;4.43;3.40;;;;;;;;;;5100641;28;20404;-80
2022/04/06 03:30:01;;;;;;;5.10;3.20;;;;;;;;;;5099899;28;20407;-80
2022/04/06 03:32:27;;;;;;;5.30;3.23;;;;;;;;;;5100251;28;20407;-81
2022/04/06 03:34:53;;;;;;;5.43;3.13;;;;;;;;;;5100464;28;20415;-80
2022/04/06 03:37:19;;;;;;;3.60;3.00;;;;;;;;;;5099848;28;20411;-80
2022/04/06 03:39:45;;;;;;;3.90;3.03;;;;;;;;;;5100182;28;20447;-80
2022/04/06 03:42:11;;;;;;;3.00;2.70;;;;;;;;;;5099927;28;20407;-80
2022/04/06 03:44:37;;;;;;;9.50;4.17;;;;;;;;;;5100848;28;20420;-80
2022/04/06 03:47:03;;;;;;;5.33;4.10;;;;;;;;;;5100408;28;20402;-81
2022/04/06 03:49:29;;;;;;;5.27;3.03;;;;;;;;;;5101316;28;20400;-80
2022/04/06 03:51:55;;;;;;;4.90;3.70;;;;;;;;;;5100116;28;20392;-81
2022/04/06 03:54:21;;;;;;;4.23;3.20;;;;;;;;;;5115484;28;20427;-80
2022/04/06 03:56:47;;;;;;;4.93;3.87;;;;;;;;;;5115704;28;20400;-80
2022/04/06 03:59:13;;;;;;;6.03;4.10;;;;;;;;;;5112661;28;20526;-81
2022/04/06 04:01:39;;;;;;;4.40;3.53;;;;;;;;;;5119943;28;20423;-81
2022/04/06 04:04:05;;;;;;;4.30;3.53;;;;;;;;;;5121508;28;20429;-81
2022/04/06 04:06:32;;;;;;;4.60;3.60;;;;;;;;;;5120872;28;20816;-80
2022/04/06 04:08:58;;;;;;;6.00;3.80;;;;;;;;;;5120922;28;20403;-81
2022/04/06 04:11:24;;;;;;;4.43;3.40;;;;;;;;;;5120673;28;20402;-81
2022/04/06 04:13:50;;;;;;;4.10;3.70;;;;;;;;;;5120894;28;20463;-80
2022/04/06 04:16:16;;;;;;;4.03;3.60;;;;;;;;;;5120389;28;20412;-81
2022/04/06 04:18:42;;;;;;;4.87;3.53;;;;;;;;;;5120561;28;20462;-80
2022/04/06 04:23:53;;;;;;;5.87;4.00;;;;;;;;;;5120063;28;20999;-82
2022/04/06 04:26:19;;;;;;;5.03;4.33;;;;;;;;;;5120293;28;20403;-81
2022/04/06 04:28:45;;;;;;;7.87;4.93;;;;;;;;;;5119869;28;20405;-81
2022/04/06 04:31:11;;;;;;;4.67;3.70;;;;;;;;;;5120721;28;20406;-81
2022/04/06 04:33:37;;;;;;;6.70;4.63;;;;;;;;;;5120704;28;20415;-81
2022/04/06 04:36:03;;;;;;;4.50;3.77;;;;;;;;;;5120737;28;20410;-81
2022/04/06 04:38:30;;;;;;;4.60;3.50;;;;;;;;;;5119106;28;20445;-80
2022/04/06 04:40:57;;;;;;;4.30;3.83;;;;;;;;;;5118738;28;20460;-80
2022/04/06 04:43:23;;;;;;;6.57;3.90;;;;;;;;;;5121102;28;20433;-81
2022/04/06 04:45:49;;;;;;;4.93;3.40;;;;;;;;;;5120183;28;20410;-81
2022/04/06 04:48:15;;;;;;;6.10;4.03;;;;;;;;;;5118995;28;20407;-81
2022/04/06 04:50:41;;;;;;;5.30;3.10;;;;;;;;;;5118450;28;20421;-80
2022/04/06 04:53:07;;;;;;;4.27;3.43;;;;;;;;;;5118669;28;20456;-81
2022/04/06 04:55:34;;;;;;;4.07;3.30;;;;;;;;;;5118442;28;20407;-81
2022/04/06 04:58:00;;;;;;;4.03;3.20;;;;;;;;;;5119164;28;20453;-81
2022/04/06 05:00:26;;;;;;;5.10;3.70;;;;;;;;;;5119623;28;20403;-80
2022/04/06 05:02:52;;;;;;;4.23;3.43;;;;;;;;;;5119363;28;20394;-81
2022/04/06 05:05:19;;;;;;;4.17;3.23;;;;;;;;;;5119649;28;20398;-81
2022/04/06 05:07:45;;;;;;;3.97;3.17;;;;;;;;;;5119162;28;20450;-81
2022/04/06 05:10:11;;;;;;;3.03;2.70;;;;;;;;;;5118938;28;20399;-81
2022/04/06 05:12:37;;;;;;;4.27;3.37;;;;;;;;;;5118991;28;20399;-82
2022/04/06 05:15:04;;;;;;;5.60;2.83;;;;;;;;;;5117311;28;20399;-81
2022/04/06 05:17:31;;;;;;;6.47;4.60;;;;;;;;;;5118702;28;20716;-81
2022/04/06 05:19:57;;;;;;;3.90;3.50;;;;;;;;;;5118232;28;20489;-81
2022/04/06 05:22:23;;;;;;;7.10;4.00;;;;;;;;;;5119428;28;20422;-81
2022/04/06 05:24:50;;;;;;;4.23;3.63;;;;;;;;;;5128082;22;20482;-87
2022/04/06 05:27:16;;;;;;;4.80;3.60;;;;;;;;;;5118436;28;20485;-87
2022/04/06 05:29:42;;;;;;;4.00;3.43;;;;;;;;;;5118695;28;20890;-88
2022/04/06 05:32:09;;;;;;;7.17;4.73;;;;;;;;;;5099128;28;20746;-88
2022/04/06 05:34:35;;;;;;;3.87;3.37;;;;;;;;;;5116724;28;20455;-88
2022/04/06 05:37:04;;;;;;;4.47;3.00;;;;;;;;;;5117464;28;20434;-88
2022/04/06 05:39:30;;;;;;;4.73;4.23;;;;;;;;;;5116630;28;20512;-88
2022/04/06 05:41:57;;;;;;;3.93;3.37;;;;;;;;;;5116425;28;20925;-88
2022/04/06 05:44:23;;;;;;;5.17;3.80;;;;;;;;;;5118639;28;20476;-88
2022/04/06 05:46:49;;;;;;;4.77;3.50;;;;;;;;;;5118309;28;20435;-88
2022/04/06 05:49:15;;;;;;;5.07;3.87;;;;;;;;;;5117081;28;20407;-88
2022/04/06 05:51:41;;;;;;;7.93;4.37;;;;;;;;;;5117982;28;20439;-88
2022/04/06 05:54:07;;;;;;;7.53;5.33;;;;;;;;;;5116773;28;20461;-87
2022/04/06 05:56:33;;;;;;;6.60;4.70;;;;;;;;;;5117115;28;20395;-87
2022/04/06 05:58:59;;;;;;;5.60;4.60;;;;;;;;;;5117430;28;20434;-88
2022/04/06 06:01:26;;;;;;;4.63;3.53;;;;;;;;;;5117445;28;20435;-88
2022/04/06 06:03:52;;;;;;;5.53;3.77;;;;;;;;;;5117408;28;20418;-89
2022/04/06 06:06:18;;;;;;;5.80;3.40;;;;;;;;;;5115715;28;20966;-88
2022/04/06 06:08:44;;;;;;;4.13;3.47;;;;;;;;;;5117067;28;20403;-88
2022/04/06 06:11:11;;;;;;;5.70;4.30;;;;;;;;;;5114613;28;20410;-87
2022/04/06 06:13:37;;;;;;;6.30;4.00;;;;;;;;;;5117067;28;20438;-87
2022/04/06 06:16:05;;;;;;;4.90;4.13;;;;;;;;;;5116044;28;20406;-88
2022/04/06 06:18:31;;;;;;;5.47;4.13;;;;;;;;;;5116064;28;20533;-87
2022/04/06 06:21:00;;;;;;;4.67;3.63;;;;;;;;;;5115905;28;20391;-88
2022/04/06 06:23:26;;;;;;;7.10;3.70;;;;;;;;;;5115646;28;20439;-87
2022/04/06 06:25:52;;;;;;;5.13;4.33;;;;;;;;;;5115814;28;20780;-88
2022/04/06 06:28:19;;;;;;;5.30;3.77;;;;;;;;;;5115578;28;20403;-88
2022/04/06 06:30:45;;;;;;;5.10;3.93;;;;;;;;;;5116125;28;20407;-88
2022/04/06 06:33:11;;;;;;;6.77;4.27;;;;;;;;;;5116236;28;20406;-88
2022/04/06 06:35:37;;;;;;;6.60;4.53;;;;;;;;;;5115998;28;20422;-88
2022/04/06 06:38:03;;;;;;;5.40;4.00;;;;;;;;;;5115379;28;20462;-88
2022/04/06 06:40:29;;;;;;;4.97;3.40;;;;;;;;;;5115894;28;20979;-88
2022/04/06 06:42:55;;;;;;;4.20;3.80;;;;;;;;;;5115957;28;20454;-88
2022/04/06 06:45:21;;;;;;;4.67;3.83;;;;;;;;;;5114822;28;20437;-88
2022/04/06 06:47:48;;;;;;;4.23;3.33;;;;;;;;;;5122752;28;20513;-87
2022/04/06 06:50:15;;;;;;;5.93;3.50;;;;;;;;;;5123182;28;20411;-89
2022/04/06 06:52:41;;;;;;;3.30;2.70;;;;;;;;;;5120049;28;20736;-89
2022/04/06 06:55:11;;;;;;;7.67;3.90;;;;;;;;;;5119044;28;20966;-87
2022/04/06 06:57:37;;;;;;;4.43;3.33;;;;;;;;;;5120285;28;20403;-88
2022/04/06 07:00:04;;;;;;;6.07;3.87;;;;;;;;;;5120048;28;20405;-87
2022/04/06 07:02:30;;;;;;;5.33;2.60;;;;;;;;;;5120483;28;20402;-87
2022/04/06 07:04:56;;;;;;;3.97;3.00;;;;;;;;;;5119052;28;20474;-87
2022/04/06 07:07:22;;;;;;;4.33;2.60;;;;;;;;;;5117406;28;20442;-87
2022/04/06 07:09:48;;;;;;;3.60;2.27;;;;;;;;;;5104999;28;20402;-88
2022/04/06 07:12:14;;;;;;;3.47;2.30;;;;;;;;;;5123247;28;20421;-88
2022/04/06 07:14:40;;;;;;;2.50;2.20;;;;;;;;;;5122337;28;20434;-88
2022/04/06 07:17:06;;;;;;;4.40;3.03;;;;;;;;;;5104870;28;20417;-89
2022/04/06 07:19:32;;;;;;;2.93;2.53;;;;;;;;;;5101257;28;20534;-89
2022/04/06 07:21:58;;;;;;;4.23;3.07;;;;;;;;;;5120644;28;20522;-91
2022/04/06 07:24:24;;;;;;;4.43;3.17;;;;;;;;;;5111520;28;20445;-88
2022/04/06 07:26:50;;;;;;;3.73;2.67;;;;;;;;;;5134098;28;20434;-91
2022/04/06 07:29:16;;;;;;;3.50;2.57;;;;;;;;;;5112600;28;20459;-89
2022/04/06 07:31:43;;;;;;;3.33;2.67;;;;;;;;;;5121932;28;20418;-86
2022/04/06 07:34:10;;;;;;;3.33;2.90;;;;;;;;;;5123250;28;20469;-88
2022/04/06 07:36:36;;;;;;;3.27;2.60;;;;;;;;;;5104919;28;20431;-88
2022/04/06 07:39:03;;;;;;;3.77;2.90;;;;;;;;;;5100702;28;20462;-88
2022/04/06 07:41:30;;;;;;;6.80;3.03;;;;;;;;;;5121308;28;20403;-88
2022/04/06 07:43:56;;;;;;;6.33;3.20;;;;;;;;;;5120265;28;20449;-88
2022/04/06 07:46:25;;;;;;;5.57;3.70;;;;;;;;;;5126239;28;20414;-88
2022/04/06 07:48:51;;;;;;;6.07;3.30;;;;;;;;;;5116683;28;20416;-88
2022/04/06 07:51:17;;;;;;;4.83;3.70;;;;;;;;;;5101143;28;20419;-88
2022/04/06 07:53:44;;;;;;;3.67;3.00;;;;;;;;;;5120313;28;20450;-89
2022/04/06 07:56:10;;;;;;;6.03;3.00;;;;;;;;;;5118875;28;20422;-88
2022/04/06 07:58:36;;;;;;;3.87;3.13;;;;;;;;;;5120818;28;20463;-88
2022/04/06 08:01:11;;;;;;;7.85;4.50;;;;;;;;;;5102359;28;20454;-89
2022/04/06 08:03:37;;;;;;;5.10;4.27;;;;;;;;;;5099508;28;20256;-88
2022/04/06 08:06:12;;;;;;;5.60;4.17;;;;;;;;;;5119713;28;20598;-88
2022/04/06 08:08:53;;;;;;;6.10;4.87;;;;;;;;;;5121685;28;20501;-88
2022/04/06 08:11:21;;;;;;;12.30;4.47;;;;;;;;;;5100867;28;20440;-87
2022/04/06 08:13:48;;;;;;;6.90;5.43;;;;;;;;;;5120484;28;20422;-88
2022/04/06 08:16:14;;;;;;;5.63;5.07;;;;;;;;;;5104316;28;20460;-88
2022/04/06 08:22:25;;;;;;;5.77;4.40;;;;;;;;;;5132891;27;20413;-88
2022/04/06 08:27:41;;;;;;;8.67;5.17;;;;;;;;;;5092924;28;20443;-89
2022/04/06 08:33:11;;;;;;;6.20;4.33;;;;;;;;;;5099401;28;20386;-89
2022/04/06 08:38:34;;;;;;;5.63;4.70;;;;;;;;;;5012150;28;20458;-87
2022/04/06 08:41:10;;;;;;;6.00;4.80;;;;;;;;;;5018172;28;20483;-88
2022/04/06 08:43:43;;;;;;;6.10;4.60;;;;;;;;;;5026367;28;20433;-88
2022/04/06 08:46:12;;;;;;;5.47;4.73;;;;;;;;;;5054106;28;20406;-86
2022/04/06 08:48:47;;;;;;;8.40;4.90;;;;;;;;;;5068556;28;20436;-86
2022/04/06 08:51:18;;;;;;;6.07;4.90;;;;;;;;;;5082943;28;20404;-87
2022/04/06 08:53:45;;;;;;;6.43;5.27;;;;;;;;;;5096431;22;20499;-87
2022/04/06 08:56:17;;;;;;;7.00;4.30;;;;;;;;;;5093373;28;20427;-85
2022/04/06 08:58:43;;;;;;;7.63;6.20;;;;;;;;;;5090760;28;20454;-87
2022/04/06 09:01:31;;;;;;;10.00;5.30;;;;;;;;;;5101514;28;20419;-88
2022/04/06 09:03:59;;;;;;;6.50;4.63;;;;;;;;;;5104269;22;20478;-86
2022/04/06 09:06:32;;;;;;;6.83;4.13;;;;;;;;;;5120692;28;20383;-88
2022/04/06 09:09:01;;;;;;;6.17;4.30;;;;;;;;;;5104038;28;20420;-86
2022/04/06 09:11:30;;;;;;;6.90;4.90;;;;;;;;;;5119029;28;20394;-87
2022/04/06 09:14:17;;;;;;;5.45;4.20;;;;;;;;;;5112275;28;20425;-86
2022/04/06 09:17:03;;;;;;;5.40;3.37;;;;;;;;;;5094519;28;20183;-86
2022/04/06 09:19:39;;;;;;;6.67;4.73;;;;;;;;;;5085206;28;20438;-86
2022/04/06 09:22:08;;;;;;;6.37;4.57;;;;;;;;;;5094932;28;20443;-87
2022/04/06 09:24:41;;;;;;;6.03;4.50;;;;;;;;;;5096304;28;20423;-87
2022/04/06 09:27:07;;;;;;;5.70;4.50;;;;;;;;;;5097035;28;20419;-87
2022/04/06 09:29:35;;;;;;;6.50;4.30;;;;;;;;;;5085608;28;20421;-87
2022/04/06 09:32:27;;;;;;;5.50;4.00;;;;;;;;;;5113586;28;20408;-88
2022/04/06 09:34:56;;;;;;;4.77;3.90;;;;;;;;;;5097300;28;20490;-87
2022/04/06 09:37:42;;;;;;;4.60;3.90;;;;;;;;;;5084201;28;20422;-88
2022/04/06 09:40:11;;;;;;;4.43;4.03;;;;;;;;;;5093466;28;20427;-87
2022/04/06 09:42:37;;;;;;;4.20;3.07;;;;;;;;;;5111764;28;20410;-87
2022/04/06 09:47:58;;;;;;;6.60;4.10;;;;;;;;;;5092467;28;20395;-88
2022/04/06 09:50:26;;;;;;;6.20;4.20;;;;;;;;;;5107826;28;20868;-88
2022/04/06 09:52:53;;;;;;;4.20;3.53;;;;;;;;;;5078825;28;20404;-88
2022/04/06 09:55:22;;;;;;;4.23;3.03;;;;;;;;;;5097882;28;20450;-89
2022/04/06 09:57:52;;;;;;;5.30;3.40;;;;;;;;;;5105864;28;20490;-87
2022/04/06 10:00:25;;;;;;;6.17;4.40;;;;;;;;;;5090701;28;20415;-88
2022/04/06 10:02:55;;;;;;;6.77;4.13;;;;;;;;;;5114005;28;20443;-87
2022/04/06 10:05:21;;;;;;;6.27;4.53;;;;;;;;;;5105187;28;20443;-88
2022/04/06 10:07:51;;;;;;;5.00;3.63;;;;;;;;;;5107635;28;20967;-88
2022/04/06 10:10:17;;;;;;;5.50;4.27;;;;;;;;;;5112910;28;20412;-87
2022/04/06 10:12:53;;;;;;;6.67;4.17;;;;;;;;;;5101389;28;20878;-88
2022/04/06 10:15:19;;;;;;;4.90;3.60;;;;;;;;;;5114873;28;20427;-86
2022/04/06 10:17:46;;;;;;;6.50;4.10;;;;;;;;;;5126087;28;20552;-86
2022/04/06 10:20:44;;;;;;;4.53;3.10;;;;;;;;;;5109924;28;20757;-88
2022/04/06 10:23:19;;;;;;;4.30;3.43;;;;;;;;;;5088615;28;20429;-87
2022/04/06 10:25:59;;;;;;;3.90;3.23;;;;;;;;;;5115137;28;20406;-88
2022/04/06 10:28:25;;;;;;;9.00;3.83;;;;;;;;;;5115583;28;20453;-88
2022/04/06 10:31:16;;;;;;;5.50;4.03;;;;;;;;;;5126783;28;20800;-87
2022/04/06 10:33:45;;;;;;;4.40;3.03;;;;;;;;;;5099559;28;20415;-88
2022/04/06 10:36:26;;;;;;;4.83;3.30;;;;;;;;;;5116253;28;20483;-87
2022/04/06 10:39:08;;;;;;;4.53;3.23;;;;;;;;;;5102241;28;20509;-87
2022/04/06 10:41:35;;;;;;;4.47;3.90;;;;;;;;;;5096868;28;20410;-87
2022/04/06 10:44:01;;;;;;;8.20;3.43;;;;;;;;;;5124662;28;20415;-88
2022/04/06 10:46:40;;;;;;;4.77;3.90;;;;;;;;;;5119491;28;20403;-87
2022/04/06 10:49:06;;;;;;;4.03;3.63;;;;;;;;;;5112696;28;20437;-87
2022/04/06 10:51:37;;;;;;;3.77;3.30;;;;;;;;;;5109539;28;20416;-87
2022/04/06 10:54:15;;;;;;;6.37;3.80;;;;;;;;;;5119401;28;20503;-86
2022/04/06 10:56:50;;;;;;;4.47;2.97;;;;;;;;;;5121331;28;20411;-86
2022/04/06 10:59:17;;;;;;;4.87;2.87;;;;;;;;;;5120469;28;20447;-87
2022/04/06 11:01:48;;;;;;;5.10;3.33;;;;;;;;;;5112593;28;20427;-85
2022/04/06 11:04:21;;;;;;;4.63;2.77;;;;;;;;;;5123389;28;20443;-87
2022/04/06 11:07:06;;;;;;;4.60;2.90;;;;;;;;;;5122082;28;20453;-86
2022/04/06 11:12:24;;;;;;;5.17;3.00;;;;;;;;;;5121575;28;20391;-87
2022/04/06 11:15:16;;;;;;;3.87;2.53;;;;;;;;;;5108534;28;20434;-86
2022/04/06 11:17:45;;;;;;;4.20;2.53;;;;;;;;;;5091197;28;20466;-86
2022/04/06 11:20:14;;;;;;;3.40;2.47;;;;;;;;;;5124162;28;20425;-88
2022/04/06 11:22:44;;;;;;;4.40;2.67;;;;;;;;;;5095753;28;20416;-86
2022/04/06 11:25:12;;;;;;;2.73;2.20;;;;;;;;;;5132218;28;20423;-87
2022/04/06 11:27:54;;;;;;;2.60;2.00;;;;;;;;;;5097853;28;20437;-89
2022/04/06 11:30:26;;;;;;;5.60;2.67;;;;;;;;;;5117920;28;20392;-89
2022/04/06 11:32:57;;;;;;;3.55;2.42;;;;;;;;;;5118986;28;20393;-88
2022/04/06 11:35:54;;;;;;;3.03;2.37;;;;;;;;;;5101734;28;20205;-89
2022/04/06 11:38:44;;;;;;;4.33;2.63;;;;;;;;;;5088357;28;20444;-90
2022/04/06 11:41:18;;;;;;;3.70;2.27;;;;;;;;;;5112830;28;20976;-90
2022/04/06 11:43:46;;;;;;;4.20;2.37;;;;;;;;;;5105143;28;20441;-88
2022/04/06 11:46:23;;;;;;;3.20;2.60;;;;;;;;;;5110203;28;20407;-89
2022/04/06 11:48:51;;;;;;;2.70;1.80;;;;;;;;;;5104681;28;20423;-89
2022/04/06 11:51:23;;;;;;;2.80;1.70;;;;;;;;;;5117814;28;20199;-89
2022/04/06 11:53:49;;;;;;;5.00;2.00;;;;;;;;;;5106036;28;20430;-89
2022/04/06 11:56:20;;;;;;;2.75;1.63;;;;;;;;;;5112501;28;20416;-89
2022/04/06 11:58:57;;;;;;;4.90;2.03;;;;;;;;;;5100510;28;20176;-89
2022/04/06 12:01:28;;;;;;;3.93;1.30;;;;;;;;;;5104786;28;20813;-91
2022/04/06 12:04:19;;;;;;;3.93;1.60;;;;;;;;;;5103936;28;20553;-90
2022/04/06 12:06:49;;;;;;;3.97;1.80;;;;;;;;;;5096618;28;20500;-87
2022/04/06 12:09:16;;;;;;;2.50;1.27;;;;;;;;;;5081062;28;20178;-89
2022/04/06 12:11:43;;;;;;;2.87;1.10;;;;;;;;;;5097403;28;20430;-89
2022/04/06 12:14:13;;;;;;;3.07;1.30;;;;;;;;;;5091055;28;20453;-89
2022/04/06 12:16:40;;;;;;;3.70;1.87;;;;;;;;;;5110068;28;20410;-87
2022/04/06 12:19:12;;;;;;;2.90;1.20;;;;;;;;;;5091390;28;20527;-87
2022/04/06 12:21:42;;;;;;;4.30;2.00;;;;;;;;;;5097677;28;20491;-88
2022/04/06 12:24:09;;;;;;;3.30;1.80;;;;;;;;;;5109448;28;20434;-88
2022/04/06 12:26:39;;;;;;;4.03;2.43;;;;;;;;;;5109980;28;20410;-89
2022/04/06 12:29:07;;;;;;;2.53;1.43;;;;;;;;;;5118637;28;20898;-87
2022/04/06 12:31:34;;;;;;;2.67;1.80;;;;;;;;;;5086523;28;20466;-88
2022/04/06 12:34:00;;;;;;;4.07;1.80;;;;;;;;;;5109056;28;20443;-87
2022/04/06 12:36:27;;;;;;;2.20;1.20;;;;;;;;;;5105491;28;20424;-88
2022/04/06 12:38:59;;;;;;;1.87;1.00;;;;;;;;;;5115765;28;20214;-87
2022/04/06 12:41:26;;;;;;;3.95;1.33;;;;;;;;;;5104155;28;20930;-88
2022/04/06 12:43:53;;;;;;;1.90;1.10;;;;;;;;;;5117118;28;20235;-88
2022/04/06 12:46:38;;;;;;;1.50;0.90;;;;;;;;;;5103208;28;20485;-88
2022/04/06 12:49:19;;;;;;;2.77;1.13;;;;;;;;;;5120079;28;20395;-88
2022/04/06 12:51:45;;;;;;;2.23;1.40;;;;;;;;;;5074422;28;20489;-88
2022/04/06 12:54:12;;;;;;;3.13;1.20;;;;;;;;;;5107828;28;20422;-88
2022/04/06 12:56:38;;;;;;;2.90;1.33;;;;;;;;;;5087112;28;20514;-89
2022/04/06 12:59:20;;;;;;;3.37;2.00;;;;;;;;;;5096795;28;20843;-90
2022/04/06 13:01:53;;;;;;;3.23;1.93;;;;;;;;;;5078402;28;20415;-89
2022/04/06 13:04:19;;;;;;;2.73;1.70;;;;;;;;;;5108191;28;20531;-88
2022/04/06 13:06:45;;;;;;;2.20;1.70;;;;;;;;;;5098006;28;20420;-88
2022/04/06 13:09:13;;;;;;;1.93;1.27;;;;;;;;;;5112915;28;20813;-88
2022/04/06 13:11:42;;;;;;;4.47;1.30;;;;;;;;;;5119423;28;20409;-89
2022/04/06 13:14:08;;;;;;;2.90;1.73;;;;;;;;;;5115350;28;20436;-88
2022/04/06 13:16:35;;;;;;;1.90;1.10;;;;;;;;;;5113496;28;20426;-87
2022/04/06 13:19:04;;;;;;;2.30;1.43;;;;;;;;;;5096221;28;20478;-87
2022/04/06 13:21:46;;;;;;;;;;;;;;;;;;;;;
2022/04/06 13:24:28;;;;;;;;;;;;;;;;;;;;;
2022/04/06 13:30:11;;;;;;;2.20;1.40;;;;;;;;;;5088126;28;20418;-88
2022/04/06 13:32:43;;;;;;;3.63;1.30;;;;;;;;;;5088902;28;20400;-88
2022/04/06 13:35:19;;;;;;;4.43;1.57;;;;;;;;;;5114647;28;20422;-88
2022/04/06 13:37:57;;;;;;;2.87;1.30;;;;;;;;;;5114152;28;20394;-89
2022/04/06 13:40:33;;;;;;;2.97;1.30;;;;;;;;;;5095290;28;20418;-88
2022/04/06 13:42:59;;;;;;;2.00;1.20;;;;;;;;;;5098182;28;20382;-89
2022/04/06 13:45:45;;;;;;;2.50;1.33;;;;;;;;;;5088294;28;20475;-88
2022/04/06 13:48:27;;;;;;;2.77;1.33;;;;;;;;;;5108374;28;20425;-87
2022/04/06 13:50:59;;;;;;;2.03;1.60;;;;;;;;;;5106382;28;20460;-87
2022/04/06 13:53:41;;;;;;;2.50;1.80;;;;;;;;;;5089141;28;20439;-88
2022/04/06 13:56:10;;;;;;;2.10;1.20;;;;;;;;;;5098005;28;20403;-88
2022/04/06 13:58:39;;;;;;;2.43;1.40;;;;;;;;;;5101896;28;20480;-89
2022/04/06 14:01:30;;;;;;;2.00;1.30;;;;;;;;;;5073668;28;20814;-88
2022/04/06 14:03:58;;;;;;;2.30;1.70;;;;;;;;;;5078789;28;20441;-88
2022/04/06 14:09:55;;;;;;;2.63;1.80;;;;;;;;;;5115302;28;20756;-90
2022/04/06 14:12:42;;;;;;;2.77;1.37;;;;;;;;;;5086451;28;20408;-89
2022/04/06 14:15:22;;;;;;;2.40;1.50;;;;;;;;;;5114749;28;20425;-89
2022/04/06 14:34:57;;;;;;;4.20;1.50;;;;;;;;;;4127778;23;20535;-89
2022/04/06 14:44:47;;;;;;;2.70;1.50;;;;;;;;;;5057414;28;20480;-88
2022/04/06 14:47:22;;;;;;;2.30;1.60;;;;;;;;;;5048590;28;20422;-89
2022/04/06 14:50:06;;;;;;;3.30;1.33;;;;;;;;;;4995009;28;20810;-86
2022/04/06 15:05:15;;;;;;;3.00;1.77;;;;;;;;;;4947092;28;20452;-87
2022/04/06 15:08:10;;;;;;;3.77;1.73;;;;;;;;;;5052867;28;20193;-91
2022/04/06 15:11:28;;;;;;;;;;;;;;;;;;;;;
2022/04/06 15:13:54;;;;;;;3.78;1.70;;;;;;;;;;5120440;22;20473;-88
2022/04/06 15:16:21;;;;;;;2.20;1.43;;;;;;;;;;5048417;28;20635;-88
2022/04/06 15:18:47;;;;;;;4.13;2.00;;;;;;;;;;5018501;28;20512;-88
2022/04/06 15:21:17;;;;;;;2.57;1.77;;;;;;;;;;5040684;28;20513;-88
2022/04/06 15:23:43;;;;;;;3.07;1.67;;;;;;;;;;5032933;28;20431;-87
2022/04/06 15:26:09;;;;;;;4.03;1.67;;;;;;;;;;5020856;28;20415;-87
2022/04/06 15:28:36;;;;;;;3.60;1.60;;;;;;;;;;5001206;28;20415;-89
2022/04/06 15:31:03;;;;;;;4.97;1.67;;;;;;;;;;5018979;28;20415;-88
2022/04/06 15:33:29;;;;;;;2.97;1.50;;;;;;;;;;5019259;28;20887;-87
2022/04/06 15:38:40;;;;;;;2.67;1.47;;;;;;;;;;5019736;28;20827;-88
2022/04/06 15:41:06;;;;;;;2.23;1.33;;;;;;;;;;5020077;28;20486;-88
2022/04/06 15:43:32;;;;;;;2.70;1.30;;;;;;;;;;5021028;28;20431;-88
2022/04/06 15:46:01;;;;;;;1.73;1.23;;;;;;;;;;5020664;28;20827;-88
2022/04/06 15:48:27;;;;;;;3.13;1.50;;;;;;;;;;5003503;28;20415;-88
2022/04/06 15:50:53;;;;;;;1.80;1.37;;;;;;;;;;5020149;28;20469;-88
2022/04/06 15:53:19;;;;;;;2.53;1.53;;;;;;;;;;5018611;28;20447;-89
2022/04/06 15:55:46;;;;;;;3.13;2.00;;;;;;;;;;5019631;28;20419;-88
2022/04/06 15:58:17;;;;;;;6.03;2.40;;;;;;;;;;5019711;28;20459;-88
2022/04/06 16:00:43;;;;;;;2.67;1.90;;;;;;;;;;5018950;28;20416;-89
2022/04/06 16:03:09;;;;;;;2.10;1.43;;;;;;;;;;5020581;28;20411;-88
2022/04/06 16:05:36;;;;;;;2.50;1.60;;;;;;;;;;5025267;28;20410;-88
2022/04/06 16:08:02;;;;;;;2.30;1.70;;;;;;;;;;5021375;28;20950;-88